Kitzingen Army Air Field


Codes: ETIN/
Name: Kitzingen Army Air Field
City:
Country: Germany
Elevation: 689 ft.

Photos at Kitzingen Army Air Field


   Photos courtesy of SpottingLog. You can add your own sightings and photos by signing up for a free trial today.



No photos found.

Weather at Kitzingen Army Air Field


Time (UTC)DescriptionTempratureWindCloud coverageVisibilityPressureHumidity
15-Apr-2024 18:00Broken Clouds15°C25 mph, SW75%10000m1004hPa61%
15-Apr-2024 21:00Light Rain10°C20 mph, W92%10000m1006hPa74%
16-Apr-2024 00:00Light Rain6°C18 mph, W96%10000m1006hPa77%
16-Apr-2024 03:00Light Rain4°C18 mph, W81%10000m1006hPa85%
16-Apr-2024 06:00Light Rain5°C20 mph, SW91%10000m1007hPa83%
16-Apr-2024 09:00Light Rain7°C25 mph, SW81%10000m1005hPa74%
16-Apr-2024 12:00Moderate Rain5°C25 mph, SW91%270m1002hPa96%
16-Apr-2024 15:00Moderate Rain6°C29 mph, W100%5643m1002hPa94%
16-Apr-2024 18:00Light Rain5°C11 mph, NW91%10000m1006hPa89%
16-Apr-2024 21:00Light Rain5°C7 mph, SW100%10000m1007hPa94%
17-Apr-2024 00:00Light Rain5°C9 mph, W100%10000m1007hPa95%
17-Apr-2024 03:00Light Rain4°C9 mph, N100%10000m1009hPa93%
17-Apr-2024 06:00Overcast Clouds4°C4 mph, NW98%10000m1011hPa87%
17-Apr-2024 09:00Light Rain4°C4 mph, N100%0m1012hPa97%
17-Apr-2024 12:00Light Rain8°C9 mph, NW100%10000m1011hPa70%
17-Apr-2024 15:00Light Rain9°C7 mph, NW100%10000m1011hPa55%
17-Apr-2024 18:00Light Rain6°C7 mph, SW100%10000m1012hPa77%
17-Apr-2024 21:00Overcast Clouds4°C4 mph, SW100%10000m1013hPa91%
18-Apr-2024 00:00Overcast Clouds4°C2 mph, SW100%10000m1013hPa93%
18-Apr-2024 03:00Overcast Clouds2°C2 mph, W96%10000m1015hPa93%
18-Apr-2024 06:00Overcast Clouds4°C2 mph, N98%10000m1016hPa86%
18-Apr-2024 09:00Light Rain8°C7 mph, NE67%10000m1017hPa66%
18-Apr-2024 12:00Light Rain11°C9 mph, N50%10000m1017hPa50%
18-Apr-2024 15:00Overcast Clouds12°C9 mph, N98%10000m1016hPa41%
18-Apr-2024 18:00Broken Clouds8°C4 mph, N63%10000m1018hPa63%
18-Apr-2024 21:00Scattered Clouds5°C2 mph, NW34%10000m1020hPa75%
19-Apr-2024 00:00Scattered Clouds3°C4 mph, W47%10000m1020hPa85%
19-Apr-2024 03:00Broken Clouds3°C4 mph, W78%10000m1020hPa88%
19-Apr-2024 06:00Overcast Clouds5°C9 mph, SW89%10000m1020hPa84%
19-Apr-2024 09:00Overcast Clouds8°C18 mph, SW100%10000m1018hPa70%
19-Apr-2024 12:00Light Rain7°C22 mph, W100%9725m1015hPa81%
19-Apr-2024 15:00Light Rain4°C20 mph, W100%118m1014hPa97%
19-Apr-2024 18:00Light Rain6°C16 mph, W100%10000m1014hPa94%
19-Apr-2024 21:00Light Rain5°C16 mph, W100%10000m1015hPa89%
20-Apr-2024 00:00Light Rain4°C16 mph, NW98%10000m1017hPa86%
20-Apr-2024 03:00Light Snow3°C16 mph, W100%10000m1018hPa81%
20-Apr-2024 06:00Overcast Clouds3°C16 mph, W99%10000m1021hPa82%
20-Apr-2024 09:00Overcast Clouds6°C13 mph, NW99%10000m1022hPa66%
20-Apr-2024 12:00Overcast Clouds7°C11 mph, NW100%10000m1023hPa57%
20-Apr-2024 15:00Overcast Clouds8°C13 mph, NW100%10000m1023hPa57%